createdAt,value
2018-09-11T00:01:40.635Z,75.89
2018-09-11T00:04:10.630Z,75.39
2018-09-11T00:06:40.084Z,75.57
2018-09-11T00:09:13.931Z,75.29
2018-09-11T00:11:44.470Z,76.13
2018-09-11T00:14:14.642Z,75.82
2018-09-11T00:16:44.157Z,75.65
2018-09-11T00:19:13.646Z,75.76
2018-09-11T00:21:44.243Z,74.96
2018-09-11T00:24:13.750Z,75.52
2018-09-11T00:26:43.217Z,75.23
2018-09-11T00:29:12.843Z,74.83
2018-09-11T00:31:42.586Z,74.74
2018-09-11T00:34:12.043Z,75.24
2018-09-11T00:36:41.901Z,74.97
2018-09-11T00:39:14.401Z,74.91
2018-09-11T00:41:43.874Z,75.18
2018-09-11T00:44:15.824Z,74.99
2018-09-11T00:46:45.668Z,74.71
2018-09-11T00:49:15.150Z,74.22
2018-09-11T00:51:45.281Z,74.92
2018-09-11T00:54:14.939Z,74.05
2018-09-11T00:56:44.782Z,73.87
2018-09-11T00:59:14.481Z,74.40
2018-09-11T01:01:44.390Z,74.45
2018-09-11T01:04:14.256Z,74.04
2018-09-11T01:06:43.758Z,74.34
2018-09-11T01:10:42.643Z,74.81
2018-09-11T01:13:12.490Z,73.75
2018-09-11T01:15:42.182Z,73.91
2018-09-11T01:18:11.712Z,73.90
2018-09-11T01:20:41.165Z,73.64
2018-09-11T01:23:10.675Z,74.64
2018-09-11T01:25:44.485Z,73.84
2018-09-11T01:28:13.993Z,73.34
2018-09-11T01:30:43.519Z,73.89
2018-09-11T01:33:14.266Z,74.34
2018-09-11T01:35:43.842Z,74.38
2018-09-11T01:38:15.150Z,74.27
2018-09-11T01:40:46.081Z,74.84
2018-09-11T01:43:15.676Z,74.21
2018-09-11T01:45:45.296Z,75.39
2018-09-11T01:48:15.068Z,74.78
2018-09-11T01:50:44.598Z,76.20
2018-09-11T01:53:15.000Z,76.71
2018-09-11T01:55:44.550Z,76.07
2018-09-11T01:58:14.059Z,76.45
2018-09-11T02:00:43.690Z,76.89
2018-09-11T02:03:13.209Z,75.96
2018-09-11T02:05:42.654Z,76.13
2018-09-11T02:08:13.085Z,76.64
2018-09-11T02:10:43.025Z,77.53
2018-09-11T02:13:12.526Z,77.91
2018-09-11T02:15:42.887Z,77.59
2018-09-11T02:18:14.450Z,78.17
2018-09-11T02:20:44.767Z,77.96
2018-09-11T02:23:14.245Z,77.43
2018-09-11T02:25:43.739Z,78.23
2018-09-11T02:28:13.149Z,77.43
2018-09-11T02:30:42.650Z,78.34
2018-09-11T02:33:12.102Z,77.91
2018-09-11T02:35:41.652Z,79.06
2018-09-11T02:38:11.127Z,78.53
2018-09-11T02:40:41.641Z,79.37
2018-09-11T02:43:11.550Z,79.47
2018-09-11T02:45:41.020Z,80.02
2018-09-11T02:48:10.450Z,80.42
2018-09-11T02:50:39.995Z,80.91
2018-09-11T02:53:09.489Z,81.84
2018-09-11T02:57:08.415Z,81.84
2018-09-11T03:06:25.281Z,83.86
2018-09-11T03:08:54.720Z,84.41
2018-09-11T03:11:24.154Z,84.25
2018-09-11T03:13:54.405Z,84.55
2018-09-11T03:16:23.879Z,85.42
2018-09-11T03:18:53.414Z,84.83
2018-09-11T03:21:22.810Z,84.77
2018-09-11T03:23:52.256Z,85.52
2018-09-11T03:26:21.764Z,84.98
2018-09-11T03:28:51.606Z,85.67
2018-09-11T03:31:21.085Z,84.99
2018-09-11T03:33:50.569Z,84.98
2018-09-11T03:36:20.224Z,85.56
2018-09-11T03:38:49.751Z,85.98
2018-09-11T03:41:19.192Z,85.48
2018-09-11T03:43:48.677Z,85.69
2018-09-11T03:46:18.202Z,85.76
2018-09-11T03:48:47.695Z,85.54
2018-09-11T03:51:17.100Z,86.38
2018-09-11T03:53:46.653Z,86.44
2018-09-11T03:56:16.108Z,85.87
2018-09-11T03:58:45.598Z,85.68
2018-09-11T04:01:15.214Z,85.84
2018-09-11T04:03:44.733Z,85.57
2018-09-11T04:06:14.302Z,85.57
2018-09-11T04:08:43.778Z,86.20
2018-09-11T04:11:13.289Z,85.58
2018-09-11T04:13:42.909Z,85.06
2018-09-11T04:16:12.840Z,84.93
2018-09-11T04:18:42.310Z,85.17
2018-09-11T04:21:11.722Z,84.85
2018-09-11T04:23:41.330Z,85.49
2018-09-11T04:26:11.330Z,85.92
2018-09-11T04:28:40.882Z,85.59
2018-09-11T04:31:10.421Z,85.32
2018-09-11T04:33:40.005Z,85.81
2018-09-11T04:36:09.702Z,85.68
2018-09-11T04:38:39.205Z,84.97
2018-09-11T04:41:08.898Z,84.68
2018-09-11T04:43:38.434Z,84.42
2018-09-11T04:46:11.696Z,85.02
2018-09-11T04:48:43.787Z,85.17
2018-09-11T04:51:13.318Z,85.59
2018-09-11T04:53:42.932Z,85.40
2018-09-11T04:56:12.441Z,86.16
2018-09-11T04:58:41.930Z,85.59
2018-09-11T05:01:11.363Z,85.41
2018-09-11T05:03:40.959Z,85.90
2018-09-11T05:06:10.449Z,86.43
2018-09-11T05:08:39.917Z,86.36
2018-09-11T05:11:09.439Z,85.46
2018-09-11T05:13:38.887Z,85.34
2018-09-11T05:16:08.522Z,85.51
2018-09-11T05:18:38.013Z,86.37
2018-09-11T05:21:07.427Z,85.87
2018-09-11T05:23:36.997Z,86.36
2018-09-11T05:26:06.475Z,85.82
2018-09-11T05:28:36.003Z,86.18
2018-09-11T05:31:05.439Z,85.71
2018-09-11T05:33:34.873Z,85.60
2018-09-11T05:36:04.464Z,85.80
2018-09-11T05:38:33.989Z,86.39
2018-09-11T05:41:03.900Z,85.87
2018-09-11T05:43:33.341Z,86.15
2018-09-11T05:46:02.853Z,85.37
2018-09-11T05:48:32.365Z,85.16
2018-09-11T05:51:01.904Z,85.67
2018-09-11T05:53:31.379Z,85.05
2018-09-11T05:56:00.881Z,85.26
2018-09-11T05:58:30.556Z,85.37
2018-09-11T06:01:00.339Z,84.65
2018-09-11T06:03:30.539Z,84.32
2018-09-11T06:06:00.136Z,84.75
2018-09-11T06:08:29.739Z,84.25
2018-09-11T06:10:59.221Z,83.33
2018-09-11T06:13:28.808Z,82.41
2018-09-11T06:15:58.611Z,83.30
2018-09-11T06:18:28.640Z,82.86
2018-09-11T06:20:58.210Z,83.07
2018-09-11T06:23:28.040Z,82.50
2018-09-11T06:25:57.614Z,82.19
2018-09-11T06:28:27.297Z,82.32
2018-09-11T06:30:56.840Z,82.19
2018-09-11T06:33:26.336Z,82.15
2018-09-11T06:35:55.866Z,81.95
2018-09-11T06:38:26.253Z,81.25
2018-09-11T06:40:55.681Z,81.39
2018-09-11T06:43:25.282Z,80.79
2018-09-11T06:45:54.807Z,80.63
2018-09-11T06:48:24.238Z,81.02
2018-09-11T06:50:54.083Z,80.47
2018-09-11T06:53:23.632Z,79.58
2018-09-11T06:55:53.534Z,79.49
2018-09-11T06:58:23.087Z,79.87
2018-09-11T07:00:52.808Z,79.15
2018-09-11T07:03:22.296Z,78.74
2018-09-11T07:05:51.939Z,79.09
2018-09-11T07:08:21.489Z,79.43
2018-09-11T07:10:50.994Z,78.89
2018-09-11T07:13:20.534Z,78.48
2018-09-11T07:15:50.078Z,77.81
2018-09-11T07:18:19.507Z,77.96
2018-09-11T07:20:49.088Z,78.13
2018-09-11T07:23:18.807Z,78.05
2018-09-11T07:25:48.303Z,78.50
2018-09-11T07:28:17.853Z,77.87
2018-09-11T07:30:47.333Z,78.27
2018-09-11T07:33:16.924Z,78.79
2018-09-11T07:35:46.446Z,78.06
2018-09-11T07:38:16.808Z,77.69
2018-09-11T07:40:46.268Z,78.22
2018-09-11T07:43:15.897Z,77.32
2018-09-11T07:45:45.377Z,77.64
2018-09-11T07:48:14.874Z,77.35
2018-09-11T07:50:44.391Z,77.85
2018-09-11T07:53:13.976Z,77.99
2018-09-11T07:55:43.510Z,77.33
2018-09-11T07:58:13.095Z,76.90
2018-09-11T08:00:42.612Z,77.16
2018-09-11T08:03:12.257Z,77.22
2018-09-11T08:05:41.669Z,76.54
2018-09-11T08:08:11.097Z,76.41
2018-09-11T08:10:40.664Z,75.30
2018-09-11T08:13:10.182Z,74.64
2018-09-11T08:15:39.779Z,75.64
2018-09-11T08:18:09.281Z,75.58
2018-09-11T08:20:39.020Z,75.26
2018-09-11T08:23:08.531Z,75.00
2018-09-11T08:25:38.001Z,74.97
2018-09-11T08:28:07.462Z,74.77
2018-09-11T08:30:37.005Z,73.72
2018-09-11T08:33:06.766Z,73.66
2018-09-11T08:35:36.231Z,73.27
2018-09-11T08:38:05.751Z,73.28
2018-09-11T08:40:35.311Z,72.86
2018-09-11T08:43:04.884Z,72.27
2018-09-11T08:45:34.557Z,71.94
2018-09-11T08:48:04.022Z,71.22
2018-09-11T08:50:33.525Z,71.27
2018-09-11T08:53:02.937Z,71.86
2018-09-11T08:55:32.748Z,70.44
2018-09-11T08:58:02.187Z,69.98
2018-09-11T09:00:31.701Z,69.90
2018-09-11T09:03:01.313Z,69.14
2018-09-11T09:05:30.943Z,69.50
2018-09-11T09:08:00.946Z,68.58
2018-09-11T09:10:30.471Z,68.67
2018-09-11T09:13:00.070Z,68.81
2018-09-11T09:15:29.564Z,68.68
2018-09-11T09:17:59.288Z,66.95
2018-09-11T09:20:28.889Z,67.00
2018-09-11T09:22:58.421Z,66.79
2018-09-11T09:25:27.901Z,66.89
2018-09-11T09:27:57.432Z,67.33
2018-09-11T09:30:27.209Z,67.12
2018-09-11T09:32:57.080Z,66.00
2018-09-11T09:35:26.595Z,66.13
2018-09-11T09:37:56.669Z,66.13
2018-09-11T09:40:26.177Z,65.07
2018-09-11T09:42:55.734Z,64.36
2018-09-11T09:45:25.265Z,63.60
2018-09-11T09:47:55.048Z,64.08
2018-09-11T09:50:24.681Z,62.71
2018-09-11T09:52:54.317Z,63.60
2018-09-11T09:55:23.833Z,62.26
2018-09-11T09:57:53.285Z,61.51
2018-09-11T10:00:27.820Z,60.89
2018-09-11T10:02:57.332Z,61.65
2018-09-11T10:05:26.873Z,61.90
2018-09-11T10:07:56.485Z,61.67
2018-09-11T10:10:26.030Z,62.10
2018-09-11T10:12:55.699Z,63.29
2018-09-11T10:15:25.172Z,62.37
2018-09-11T10:17:54.799Z,62.62
2018-09-11T10:20:24.268Z,62.61
2018-09-11T10:22:54.428Z,61.88
2018-09-11T10:25:23.955Z,60.74
2018-09-11T10:27:53.392Z,61.09
2018-09-11T10:30:23.078Z,61.78
2018-09-11T10:32:52.795Z,60.88
2018-09-11T10:35:22.397Z,61.06
2018-09-11T10:37:51.893Z,61.37
2018-09-11T10:40:21.329Z,61.76
2018-09-11T10:42:51.004Z,61.28
2018-09-11T10:45:20.429Z,60.90
2018-09-11T10:47:49.985Z,60.82
2018-09-11T10:50:19.779Z,62.00
2018-09-11T10:52:49.283Z,61.40
2018-09-11T10:55:18.837Z,60.84
2018-09-11T10:57:48.307Z,60.70
2018-09-11T11:00:19.071Z,60.52
2018-09-11T11:02:48.521Z,60.63
2018-09-11T11:05:18.119Z,61.08
2018-09-11T11:07:50.126Z,60.82
2018-09-11T11:10:19.811Z,60.70
2018-09-11T11:12:49.953Z,60.90
2018-09-11T11:15:21.484Z,60.81
2018-09-11T11:17:52.009Z,60.93
2018-09-11T11:20:22.272Z,61.32
2018-09-11T11:22:51.885Z,60.88
2018-09-11T11:28:13.184Z,60.55
2018-09-11T11:30:44.381Z,60.59
2018-09-11T11:33:15.132Z,61.35
2018-09-11T11:35:45.240Z,61.55
2018-09-11T11:38:15.228Z,62.09
2018-09-11T11:40:44.797Z,61.55
2018-09-11T11:43:14.592Z,62.32
2018-09-11T11:45:47.232Z,62.39
2018-09-11T11:48:17.730Z,63.31
2018-09-11T11:50:47.849Z,63.41
2018-09-11T11:53:18.763Z,64.46
2018-09-11T11:55:48.506Z,64.50
2018-09-11T11:58:18.715Z,64.44
2018-09-11T12:00:48.951Z,65.50
2018-09-11T12:03:21.217Z,65.10
2018-09-11T12:05:50.778Z,64.82
2018-09-11T12:08:21.359Z,64.44
2018-09-11T12:10:51.405Z,64.62
2018-09-11T12:13:21.593Z,63.50
2018-09-11T12:15:53.802Z,63.17
2018-09-11T12:18:23.573Z,63.04
2018-09-11T12:20:53.442Z,62.90
2018-09-11T12:23:23.848Z,63.17
2018-09-11T12:25:57.065Z,62.79
2018-09-11T12:28:27.225Z,62.85
2018-09-11T12:30:57.867Z,63.43
2018-09-11T12:33:27.477Z,62.99
2018-09-11T12:35:58.589Z,63.64
2018-09-11T12:38:59.051Z,63.34
2018-09-11T12:41:28.632Z,63.04
2018-09-11T12:43:58.263Z,63.01
2018-09-11T12:46:28.395Z,63.78
2018-09-11T12:48:59.932Z,63.45
2018-09-11T12:51:29.764Z,63.78
2018-09-11T12:53:59.779Z,63.49
2018-09-11T12:56:30.210Z,63.36
2018-09-11T12:58:59.714Z,63.65
2018-09-11T13:01:29.428Z,63.90
2018-09-11T13:03:59.101Z,64.16
2018-09-11T13:06:28.873Z,64.08
2018-09-11T13:08:59.555Z,63.88
2018-09-11T13:11:29.253Z,63.98
2018-09-11T13:13:58.838Z,64.54
2018-09-11T13:16:28.520Z,64.89
2018-09-11T13:18:58.202Z,64.42
2018-09-11T13:21:27.905Z,64.52
2018-09-11T13:23:57.872Z,64.54
2018-09-11T13:26:28.199Z,65.28
2018-09-11T13:28:58.346Z,64.87
2018-09-11T13:31:29.130Z,64.95
2018-09-11T13:33:59.826Z,65.06
2018-09-11T13:36:30.167Z,65.89
2018-09-11T13:39:00.714Z,65.71
2018-09-11T13:41:30.263Z,65.49
2018-09-11T13:44:00.764Z,65.15
2018-09-11T13:46:30.490Z,65.24
2018-09-11T13:49:00.060Z,66.33
2018-09-11T13:55:11.488Z,66.26
2018-09-11T13:57:41.043Z,66.62
2018-09-11T14:00:12.786Z,66.81
2018-09-11T14:02:44.743Z,66.46
2018-09-11T14:05:15.164Z,67.21
2018-09-11T14:07:45.011Z,67.34
2018-09-11T14:10:14.666Z,67.06
2018-09-11T14:12:45.346Z,67.10
2018-09-11T14:15:15.367Z,66.99
2018-09-11T14:17:46.772Z,67.52
2018-09-11T14:20:16.488Z,67.46
2018-09-11T14:22:48.070Z,67.20
2018-09-11T14:25:19.501Z,68.60
2018-09-11T14:27:51.648Z,68.66
2018-09-11T14:30:21.394Z,68.55
2018-09-11T14:32:51.250Z,69.47
2018-09-11T14:35:20.887Z,69.98
2018-09-11T14:37:50.547Z,69.27
2018-09-11T14:40:56.819Z,69.34
2018-09-11T14:43:26.418Z,68.34
2018-09-11T14:45:56.166Z,69.17
2018-09-11T14:48:26.229Z,69.58
2018-09-11T14:50:55.802Z,69.71
2018-09-11T14:53:25.441Z,69.26
2018-09-11T14:55:55.429Z,69.76
2018-09-11T14:58:26.332Z,69.69
2018-09-11T15:00:57.689Z,70.15
2018-09-11T15:03:27.614Z,71.27
2018-09-11T15:05:58.661Z,70.66
2018-09-11T15:08:28.973Z,71.43
2018-09-11T15:10:59.155Z,71.24
2018-09-11T15:13:29.187Z,71.00
2018-09-11T15:15:59.580Z,70.96
2018-09-11T15:18:29.791Z,71.04
2018-09-11T15:21:00.096Z,70.94
2018-09-11T15:23:30.170Z,71.65
2018-09-11T15:25:59.861Z,71.16
2018-09-11T15:28:29.481Z,71.30
2018-09-11T15:30:59.161Z,71.47
2018-09-11T15:33:32.199Z,72.02
2018-09-11T15:36:02.172Z,71.96
2018-09-11T15:38:32.931Z,71.85
2018-09-11T15:41:02.892Z,72.71
2018-09-11T15:43:33.373Z,73.20
2018-09-11T15:46:04.476Z,74.09
2018-09-11T15:48:34.319Z,74.36
2018-09-11T15:51:07.482Z,75.00
2018-09-11T15:53:37.373Z,75.31
2018-09-11T15:56:41.816Z,76.19
2018-09-11T15:59:12.253Z,76.08
2018-09-11T16:01:41.793Z,76.10
2018-09-11T16:04:13.278Z,77.04
2018-09-11T16:06:45.942Z,76.79
2018-09-11T16:09:21.385Z,76.77
2018-09-11T16:11:51.643Z,76.66
2018-09-11T16:14:21.410Z,77.32
2018-09-11T16:16:53.685Z,76.63
2018-09-11T16:19:24.543Z,77.54
2018-09-11T16:21:55.444Z,77.38
2018-09-11T16:24:25.063Z,76.87
2018-09-11T16:26:54.680Z,77.83
2018-09-11T16:29:24.187Z,77.80
2018-09-11T16:31:53.800Z,77.99
2018-09-11T16:34:23.497Z,79.17
2018-09-11T16:36:53.616Z,79.14
2018-09-11T16:39:23.660Z,79.89
2018-09-11T16:41:55.728Z,80.28
2018-09-11T16:44:26.344Z,80.46
2018-09-11T16:46:56.836Z,81.12
2018-09-11T16:49:26.558Z,81.46
2018-09-11T16:51:57.112Z,82.22
2018-09-11T16:54:28.402Z,82.41
2018-09-11T16:56:58.111Z,82.72
2018-09-11T16:59:27.838Z,83.24
2018-09-11T17:01:58.067Z,83.12
2018-09-11T17:04:28.947Z,82.56
2018-09-11T17:06:59.649Z,83.60
2018-09-11T17:09:29.258Z,83.11
2018-09-11T17:11:59.596Z,83.40
2018-09-11T17:14:29.317Z,82.62
2018-09-11T17:16:59.905Z,83.58
2018-09-11T17:19:30.317Z,83.30
2018-09-11T17:21:59.842Z,84.01
2018-09-11T17:24:29.421Z,83.56
2018-09-11T17:26:59.935Z,84.17
2018-09-11T17:29:29.862Z,84.69
2018-09-11T17:32:00.380Z,84.74
2018-09-11T17:34:30.023Z,84.20
2018-09-11T17:37:01.055Z,84.66
2018-09-11T17:39:30.680Z,84.97
2018-09-11T17:42:00.764Z,85.38
2018-09-11T17:44:31.389Z,84.63
2018-09-11T17:47:02.678Z,85.30
2018-09-11T17:49:32.286Z,84.99
2018-09-11T17:52:08.645Z,85.82
2018-09-11T17:55:03.825Z,85.85
2018-09-11T17:57:34.304Z,86.05
2018-09-11T18:00:04.662Z,86.35
2018-09-11T18:02:35.111Z,86.09
2018-09-11T18:05:05.785Z,85.43
2018-09-11T18:07:35.675Z,85.51
2018-09-11T18:10:05.364Z,86.24
2018-09-11T18:12:35.090Z,87.11
2018-09-11T18:15:04.835Z,87.80
2018-09-11T18:17:34.831Z,87.02
2018-09-11T18:20:04.873Z,87.56
2018-09-11T18:22:34.572Z,87.33
2018-09-11T18:25:04.300Z,87.09
2018-09-11T18:27:34.619Z,87.22
2018-09-11T18:30:07.298Z,86.66
2018-09-11T18:32:37.074Z,87.31
2018-09-11T18:35:07.722Z,86.89
2018-09-11T18:37:38.308Z,86.38
2018-09-11T18:40:08.560Z,86.49
2018-09-11T18:42:42.046Z,85.89
2018-09-11T18:45:12.442Z,86.42
2018-09-11T18:47:41.976Z,85.35
2018-09-11T18:50:11.666Z,86.22
2018-09-11T18:52:44.972Z,85.43
2018-09-11T18:55:15.054Z,86.12
2018-09-11T18:57:44.657Z,85.40
2018-09-11T19:00:14.294Z,85.43
2018-09-11T19:02:44.702Z,85.21
2018-09-11T19:05:14.232Z,85.56
2018-09-11T19:07:43.760Z,85.81
2018-09-11T19:10:13.348Z,85.73
2018-09-11T19:12:43.259Z,85.20
2018-09-11T19:15:13.266Z,85.70
2018-09-11T19:17:42.850Z,84.95
2018-09-11T19:20:12.530Z,84.83
2018-09-11T19:22:43.502Z,84.79
2018-09-11T19:25:14.028Z,84.70
2018-09-11T19:27:45.047Z,85.57
2018-09-11T19:30:16.195Z,84.97
2018-09-11T19:33:13.221Z,85.64
2018-09-11T19:35:43.425Z,85.09
2018-09-11T19:38:13.339Z,85.65
2018-09-11T19:40:43.069Z,85.54
2018-09-11T19:43:12.858Z,85.36
2018-09-11T19:45:43.384Z,84.69
2018-09-11T19:48:13.005Z,84.24
2018-09-11T19:50:42.550Z,83.85
2018-09-11T19:53:12.122Z,84.43
2018-09-11T19:55:42.499Z,83.82
2018-09-11T19:58:12.419Z,84.05
2018-09-11T20:00:42.642Z,84.52
2018-09-11T20:03:13.012Z,84.97
2018-09-11T20:05:43.380Z,86.12
2018-09-11T20:08:13.877Z,86.13
2018-09-11T20:10:43.512Z,86.33
2018-09-11T20:13:14.534Z,86.19
2018-09-11T20:15:44.029Z,86.84
2018-09-11T20:18:15.458Z,87.25
2018-09-11T20:20:45.603Z,85.72
2018-09-11T20:23:15.167Z,85.19
2018-09-11T20:25:46.244Z,85.32
2018-09-11T20:28:15.825Z,84.53
2018-09-11T20:30:46.462Z,84.19
2018-09-11T20:33:16.691Z,84.18
2018-09-11T20:35:46.239Z,84.60
2018-09-11T20:38:16.589Z,83.85
2018-09-11T20:40:47.407Z,83.77
2018-09-11T20:43:16.996Z,83.85
2018-09-11T20:46:21.051Z,84.37
2018-09-11T20:48:50.704Z,84.66
2018-09-11T20:51:21.385Z,84.36
2018-09-11T20:53:53.953Z,84.82
2018-09-11T20:56:23.500Z,85.16
2018-09-11T20:58:53.807Z,86.00
2018-09-11T21:01:23.410Z,86.25
2018-09-11T21:03:53.613Z,87.39
2018-09-11T21:06:23.169Z,88.18
2018-09-11T21:08:54.985Z,87.88
2018-09-11T21:11:25.070Z,87.50
2018-09-11T21:13:55.409Z,88.41
2018-09-11T21:16:25.929Z,88.07
2018-09-11T21:18:56.335Z,87.96
2018-09-11T21:21:25.973Z,87.43
2018-09-11T21:23:56.839Z,88.26
2018-09-11T21:26:27.006Z,87.85
2018-09-11T21:28:56.884Z,88.42
2018-09-11T21:31:26.416Z,87.92
2018-09-11T21:33:56.398Z,88.09
2018-09-11T21:36:25.983Z,88.03
2018-09-11T21:38:56.414Z,89.22
2018-09-11T21:41:25.909Z,88.49
2018-09-11T21:43:57.629Z,89.33
2018-09-11T21:46:27.770Z,90.07
2018-09-11T21:48:58.308Z,90.01
2018-09-11T21:51:28.543Z,90.43
2018-09-11T21:53:58.830Z,91.25
2018-09-11T21:56:29.140Z,91.16
2018-09-11T22:02:20.063Z,91.81
2018-09-11T22:04:49.996Z,91.78
2018-09-11T22:07:19.736Z,91.77
2018-09-11T22:09:49.986Z,91.61
2018-09-11T22:12:21.365Z,92.21
2018-09-11T22:14:50.970Z,91.81
2018-09-11T22:17:21.231Z,91.57
2018-09-11T22:19:52.843Z,92.29
2018-09-11T22:22:24.071Z,91.87
2018-09-11T22:24:53.968Z,91.35
2018-09-11T22:27:25.025Z,93.17
2018-09-11T22:29:54.489Z,93.74
2018-09-11T22:32:24.032Z,93.73
2018-09-11T22:34:54.731Z,93.97
2018-09-11T22:37:25.755Z,93.66
2018-09-11T22:39:55.342Z,93.66
2018-09-11T22:42:26.178Z,94.18
2018-09-11T22:44:57.594Z,94.38
2018-09-11T22:47:27.745Z,94.73
2018-09-11T22:49:57.251Z,94.87
2018-09-11T22:52:28.491Z,94.79
2018-09-11T22:54:58.009Z,95.69
2018-09-11T22:57:29.066Z,95.42
2018-09-11T22:59:58.977Z,95.84
2018-09-11T23:02:31.497Z,96.30
2018-09-11T23:05:01.481Z,96.86
2018-09-11T23:07:30.991Z,97.32
2018-09-11T23:10:01.358Z,97.06
2018-09-11T23:15:27.870Z,97.35
2018-09-11T23:17:57.397Z,98.07
2018-09-11T23:20:27.442Z,98.41
2018-09-11T23:22:58.432Z,97.76
2018-09-11T23:25:27.931Z,98.00
2018-09-11T23:27:57.423Z,98.12
2018-09-11T23:30:26.940Z,98.75
2018-09-11T23:32:57.006Z,99.12
2018-09-11T23:35:26.508Z,99.63
2018-09-11T23:37:56.008Z,100.00
2018-09-11T23:40:25.482Z,99.77
2018-09-11T23:42:55.026Z,100.00
2018-09-11T23:45:25.141Z,100.00
2018-09-11T23:47:54.917Z,100.00
2018-09-11T23:50:25.631Z,100.00
2018-09-11T23:52:55.209Z,100.00
2018-09-11T23:55:24.723Z,100.00
2018-09-11T23:57:54.574Z,100.00
